Time;durP1;ratioP1;P1;durP2;ratioP2;P2;SDS_P1;SDS_P2;PMS_P1;PMS_P2;Temp;Humidity;BMP_temperature;BMP_pressure;BME280_temperature;BME280_humidity;BME280_pressure;Samples;Min_cycle;Max_cycle;Signal;HPM_P1;HPM_P2
2023/04/12 00:02:34;;;;;;;3.93;1.00;;;;;;;8.22;40.51;99667.00;20984027;28;20269;-77
2023/04/12 00:12:36;;;;;;;5.95;0.80;;;;;;;8.11;40.20;99633.69;20984848;28;20268;-80
2023/04/12 00:22:40;;;;;;;4.68;0.70;;;;;;;7.96;40.99;99625.84;20975368;28;20253;-78
2023/04/12 00:32:42;;;;;;;5.23;0.93;;;;;;;7.68;41.94;99619.09;20982676;28;20599;-81
2023/04/12 00:42:45;;;;;;;4.50;0.57;;;;;;;7.99;39.71;99602.69;20960525;28;20195;-80
2023/04/12 00:52:47;;;;;;;2.47;0.80;;;;;;;8.31;40.46;99580.56;20982723;28;20222;-78
2023/04/12 01:02:49;;;;;;;3.17;0.60;;;;;;;7.65;41.24;99580.44;20947334;28;20199;-79
2023/04/12 01:13:01;;;;;;;5.50;0.88;;;;;;;7.58;43.13;99574.53;20958795;28;20248;-80
2023/04/12 01:23:27;;;;;;;4.43;0.90;;;;;;;7.15;43.87;99541.09;20979733;28;20251;-80
2023/04/12 01:33:30;;;;;;;1.20;0.50;;;;;;;7.02;45.16;99531.75;21006553;28;20219;-80
2023/04/12 01:43:32;;;;;;;3.30;0.47;;;;;;;6.84;46.33;99500.16;21003127;28;20196;-80
2023/04/12 01:53:55;;;;;;;3.60;0.95;;;;;;;7.09;46.51;99473.13;21014251;28;20551;-80
2023/04/12 02:04:00;;;;;;;1.53;0.60;;;;;;;6.69;49.26;99462.28;21000109;28;20751;-78
2023/04/12 02:14:03;;;;;;;4.43;0.70;;;;;;;6.82;49.39;99437.97;21023358;28;20210;-80
2023/04/12 02:24:05;;;;;;;3.73;0.70;;;;;;;6.94;49.54;99409.19;20987302;28;20620;-79
2023/04/12 02:34:07;;;;;;;3.88;0.60;;;;;;;6.48;51.21;99387.63;20942632;28;20219;-82
2023/04/12 02:44:12;;;;;;;2.33;0.60;;;;;;;6.65;50.96;99356.72;20902780;28;20597;-80
2023/04/12 02:54:20;;;;;;;2.37;0.63;;;;;;;6.68;51.00;99342.84;20890343;28;20697;-78
2023/04/12 03:04:29;;;;;;;4.68;0.70;;;;;;;6.52;51.48;99307.28;20894724;28;20188;-80
2023/04/12 03:14:34;;;;;;;2.90;0.80;;;;;;;6.37;52.58;99277.88;20909747;28;20567;-81
2023/04/12 03:24:43;;;;;;;2.15;0.73;;;;;;;6.48;52.97;99241.84;20885734;28;20918;-78
2023/04/12 03:34:49;;;;;;;5.45;0.40;;;;;;;5.92;54.12;99230.03;20891250;28;20298;-81
2023/04/12 03:44:58;;;;;;;0.95;0.38;;;;;;;5.99;54.07;99199.50;20892716;28;20234;-81
2023/04/12 03:55:00;;;;;;;1.90;0.50;;;;;;;6.28;53.14;99179.03;20882036;28;20425;-79
2023/04/12 04:05:03;;;;;;;1.90;0.50;;;;;;;6.27;53.49;99149.34;20870980;28;20234;-78
2023/04/12 04:15:06;;;;;;;1.95;0.63;;;;;;;6.56;52.43;99128.84;20902513;28;20335;-78
2023/04/12 04:25:09;;;;;;;1.30;0.60;;;;;;;6.47;52.86;99114.84;20908493;28;20280;-80
2023/04/12 04:35:16;;;;;;;1.50;0.53;;;;;;;5.82;54.57;99088.38;20933198;28;20226;-78
2023/04/12 04:45:35;;;;;;;2.83;0.93;;;;;;;6.17;54.23;99076.91;20940313;28;20221;-79
2023/04/12 04:55:37;;;;;;;0.77;0.47;;;;;;;5.90;54.46;99062.31;20922029;28;20673;-78
2023/04/12 05:05:40;;;;;;;1.53;0.60;;;;;;;6.06;55.21;99051.28;20937243;28;20230;-79
2023/04/12 05:15:45;;;;;;;1.27;0.40;;;;;;;6.10;54.50;99038.22;20949759;28;20238;-77
2023/04/12 05:25:48;;;;;;;0.53;0.50;;;;;;;6.14;55.24;99021.56;20963300;28;20272;-80
2023/04/12 05:35:52;;;;;;;1.15;0.40;;;;;;;6.06;57.47;99011.25;20962870;28;20223;-79
2023/04/12 05:45:54;;;;;;;2.13;0.70;;;;;;;5.96;58.70;98993.69;20980596;28;20535;-78
2023/04/12 05:55:58;;;;;;;1.50;0.60;;;;;;;6.00;60.52;98977.84;20971350;28;20655;-81
2023/04/12 06:06:01;;;;;;;0.77;0.43;;;;;;;5.84;62.20;98960.03;20973358;28;20195;-78
2023/04/12 06:16:04;;;;;;;1.83;0.37;;;;;;;5.67;62.28;98946.19;20968553;28;20223;-75
2023/04/12 06:26:06;;;;;;;1.58;0.77;;;;;;;6.19;61.95;98928.88;20989825;28;20219;-86
2023/04/12 06:36:10;;;;;;;1.53;0.40;;;;;;;5.57;64.39;98918.63;20983360;28;20215;-76
2023/04/12 06:46:14;;;;;;;1.43;0.50;;;;;;;5.94;63.69;98899.97;20986854;28;20221;-73
2023/04/12 06:56:16;;;;;;;0.73;0.30;;;;;;;5.70;65.18;98878.31;20950465;28;20215;-75
2023/04/12 07:06:20;;;;;;;1.07;0.37;;;;;;;5.67;65.46;98859.41;20964287;28;20494;-82
2023/04/12 07:16:29;;;;;;;0.60;0.20;;;;;;;6.15;64.58;98841.06;20983190;28;20191;-77
2023/04/12 07:26:32;;;;;;;0.30;0.10;;;;;;;5.73;67.01;98838.44;20985789;28;20231;-91
2023/04/12 07:36:34;;;;;;;1.03;0.30;;;;;;;6.26;65.02;98817.03;20960228;28;20187;-85
2023/04/12 07:46:37;;;;;;;0.63;0.20;;;;;;;6.57;63.67;98806.06;20972676;28;20496;-78
2023/04/12 07:56:39;;;;;;;0.40;0.20;;;;;;;6.59;65.28;98792.47;20963935;28;20191;-76
2023/04/12 08:06:41;;;;;;;0.30;0.20;;;;;;;6.61;64.75;98778.94;20950458;28;20187;-76
2023/04/12 08:16:44;;;;;;;1.63;0.20;;;;;;;7.08;64.17;98769.91;20961598;28;20203;-83
2023/04/12 08:26:46;;;;;;;0.10;0.10;;;;;;;6.63;65.24;98770.97;20978732;28;20231;-80
2023/04/12 08:36:48;;;;;;;0.13;0.13;;;;;;;7.00;64.14;98785.72;20943943;28;20204;-79
2023/04/12 08:46:50;;;;;;;0.47;0.17;;;;;;;6.49;66.41;98769.69;20987452;28;20595;-81
2023/04/12 08:56:56;;;;;;;1.20;0.20;;;;;;;6.60;67.29;98745.63;20957731;28;20640;-75
2023/04/12 09:06:59;;;;;;;0.20;0.20;;;;;;;7.72;64.81;98726.78;20955294;28;20244;-76
2023/04/12 09:17:01;;;;;;;0.27;0.10;;;;;;;7.80;65.07;98728.56;20953092;28;20535;-75
2023/04/12 09:27:05;;;;;;;0.43;0.10;;;;;;;7.41;66.25;98719.91;20965575;28;20284;-81
2023/04/12 09:37:17;;;;;;;0.50;0.10;;;;;;;7.74;65.03;98714.00;20967142;28;20580;-85
2023/04/12 09:47:21;;;;;;;0.30;0.20;;;;;;;8.30;64.28;98712.91;20948806;28;20226;-75
2023/04/12 09:57:23;;;;;;;0.40;0.10;;;;;;;8.37;64.39;98704.66;20952171;28;20241;-76
2023/04/12 10:07:26;;;;;;;0.75;0.30;;;;;;;8.10;65.33;98706.44;20928076;28;20292;-79
2023/04/12 10:17:28;;;;;;;0.40;0.17;;;;;;;8.88;64.58;98694.13;20963565;28;20187;-76
2023/04/12 10:27:30;;;;;;;1.17;0.20;;;;;;;8.67;65.30;98688.84;20967123;28;20235;-77
2023/04/12 10:38:03;;;;;;;1.60;0.50;;;;;;;9.74;63.68;98674.81;20967312;28;20238;-79
2023/04/12 10:48:06;;;;;;;0.28;0.28;;;;;;;9.29;62.12;98667.19;20985070;28;20608;-79
2023/04/12 10:58:08;;;;;;;0.85;0.20;;;;;;;9.09;63.66;98666.41;20970182;28;20592;-76
2023/04/12 11:08:11;;;;;;;0.30;0.10;;;;;;;9.81;59.90;98671.34;20985124;28;20219;-83
2023/04/12 11:18:13;;;;;;;3.10;0.30;;;;;;;9.07;64.73;98676.38;20982364;28;20203;-75
2023/04/12 11:28:17;;;;;;;0.30;0.20;;;;;;;9.19;64.89;98688.28;20975630;28;20249;-86
2023/04/12 11:38:31;;;;;;;0.20;0.20;;;;;;;8.29;66.40;98705.66;20952758;28;20221;-75
2023/04/12 11:48:33;;;;;;;1.45;0.50;;;;;;;8.28;64.18;98698.41;20940756;28;20673;-80
2023/04/12 11:58:36;;;;;;;1.30;0.63;;;;;;;9.20;60.98;98689.94;20947470;28;20195;-81
2023/04/12 12:08:38;;;;;;;1.98;1.20;;;;;;;9.81;60.23;98688.25;20973097;28;20239;-86
2023/04/12 12:18:44;;;;;;;2.60;1.30;;;;;;;9.33;61.39;98704.66;20971800;28;20631;-84
2023/04/12 12:28:52;;;;;;;1.98;1.77;;;;;;;9.25;62.53;98697.25;20910406;28;20313;-84
2023/04/12 12:38:54;;;;;;;1.17;0.45;;;;;;;8.76;56.51;98709.16;20913651;28;20200;-85
2023/04/12 12:48:56;;;;;;;1.05;0.60;;;;;;;9.88;55.26;98708.88;20897838;28;20220;-85
2023/04/12 12:58:58;;;;;;;2.08;0.60;;;;;;;9.57;52.46;98693.03;20912778;28;20199;-82
2023/04/12 13:09:01;;;;;;;1.17;0.60;;;;;;;9.88;53.60;98685.53;20915668;28;20250;-84
2023/04/12 13:19:03;;;;;;;2.17;0.95;;;;;;;10.02;50.40;98682.13;20876202;28;20207;-82
2023/04/12 13:29:05;;;;;;;5.20;1.00;;;;;;;10.21;48.06;98659.47;20963551;28;20242;-81
2023/04/12 13:39:08;;;;;;;2.22;0.80;;;;;;;10.12;45.84;98656.91;20948447;28;20700;-82
2023/04/12 13:49:10;;;;;;;4.93;1.00;;;;;;;10.50;48.37;98650.22;20946696;28;20241;-85
2023/04/12 13:59:13;;;;;;;2.72;0.82;;;;;;;11.01;47.49;98652.44;20975741;28;20191;-82
2023/04/12 14:09:29;;;;;;;2.67;1.15;;;;;;;11.04;44.93;98657.34;20990702;28;20707;-81
2023/04/12 14:19:31;;;;;;;7.70;1.58;;;;;;;11.98;42.30;98655.00;20972799;28;20241;-85
2023/04/12 14:29:33;;;;;;;9.63;1.35;;;;;;;10.83;44.68;98665.56;20962843;28;20206;-83
2023/04/12 14:39:36;;;;;;;6.85;1.58;;;;;;;11.05;44.43;98658.97;20976154;28;20558;-80
2023/04/12 14:49:38;;;;;;;5.25;2.28;;;;;;;8.44;51.63;98716.03;20980809;28;20211;-80
2023/04/12 14:59:40;;;;;;;3.87;1.83;;;;;;;7.42;60.38;98762.84;20980689;28;20218;-79
2023/04/12 15:09:45;;;;;;;6.32;2.22;;;;;;;7.25;61.04;98780.81;20991280;28;20681;-85
2023/04/12 15:19:47;;;;;;;11.00;2.50;;;;;;;7.37;58.08;98771.50;20979179;28;20292;-79
2023/04/12 15:29:49;;;;;;;7.35;2.15;;;;;;;8.32;58.97;98772.41;20981406;28;20243;-77
2023/04/12 15:39:51;;;;;;;8.15;2.22;;;;;;;8.65;56.15;98800.13;20969480;28;20203;-79
2023/04/12 15:49:54;;;;;;;9.13;2.00;;;;;;;7.87;58.70;98813.06;20974927;28;20250;-82
2023/04/12 15:59:58;;;;;;;6.27;2.10;;;;;;;6.59;59.95;98837.34;20987167;28;20222;-78
2023/04/12 16:10:02;;;;;;;7.77;2.97;;;;;;;6.89;56.06;98845.47;20974627;28;20265;-87
2023/04/12 16:20:05;;;;;;;4.57;2.60;;;;;;;8.30;53.52;98831.81;20962988;28;20720;-85
2023/04/12 16:30:10;;;;;;;2.10;0.80;;;;;;;7.71;52.32;98835.50;20992160;28;20206;-86
2023/04/12 16:40:15;;;;;;;2.42;0.70;;;;;;;7.07;54.48;98842.06;20970909;28;20214;-90
2023/04/12 16:50:21;;;;;;;3.67;1.10;;;;;;;7.08;51.18;98845.69;20977478;28;20211;-84
2023/04/12 17:00:28;;;;;;;4.93;0.50;;;;;;;7.24;50.66;98891.44;20975092;28;20192;-85
2023/04/12 17:10:32;;;;;;;1.20;0.55;;;;;;;7.46;50.20;98892.09;20933537;28;20222;-83
2023/04/12 17:20:35;;;;;;;0.93;0.30;;;;;;;6.54;52.33;98868.41;20963488;28;20216;-90
2023/04/12 17:30:37;;;;;;;0.67;0.20;;;;;;;6.57;52.20;98872.53;20913918;28;20207;-83
2023/04/12 17:40:40;;;;;;;0.87;0.30;;;;;;;6.55;49.81;98867.28;20905704;28;20224;-82
2023/04/12 17:50:44;;;;;;;1.33;0.40;;;;;;;6.84;50.66;98860.56;20918203;28;20663;-80
2023/04/12 18:00:46;;;;;;;0.87;0.40;;;;;;;7.25;48.87;98856.59;20911929;28;20236;-82
2023/04/12 18:10:49;;;;;;;1.13;0.50;;;;;;;7.33;51.05;98857.63;20912315;28;20482;-78
2023/04/12 18:20:52;;;;;;;2.03;0.73;;;;;;;7.09;50.88;98850.13;20895121;28;20278;-83
2023/04/12 18:30:54;;;;;;;2.70;1.50;;;;;;;6.90;52.18;98867.56;20894369;28;20219;-78
2023/04/12 18:40:58;;;;;;;0.88;0.50;;;;;;;7.10;51.11;98868.56;20872727;28;20272;-78
2023/04/12 18:51:00;;;;;;;1.10;0.80;;;;;;;6.59;55.20;98882.19;20910136;28;20528;-78
2023/04/12 19:01:03;;;;;;;3.00;0.93;;;;;;;6.12;57.72;98893.00;20902699;28;20253;-81
2023/04/12 19:11:06;;;;;;;1.57;1.00;;;;;;;6.20;59.05;98905.28;20896640;28;20245;-79
2023/04/12 19:21:08;;;;;;;1.23;0.83;;;;;;;5.80;59.74;98897.47;20906383;28;20224;-82
2023/04/12 19:31:12;;;;;;;2.50;1.50;;;;;;;5.95;60.11;98896.81;20891124;28;20240;-79
2023/04/12 19:41:16;;;;;;;2.40;1.63;;;;;;;5.97;60.01;98902.91;20897266;28;20285;-79
2023/04/12 19:51:18;;;;;;;2.83;1.40;;;;;;;6.02;58.89;98891.47;20894054;28;20219;-77
2023/04/12 20:01:49;;;;;;;2.55;1.73;;;;;;;5.90;58.56;98879.44;20918826;28;20188;-81
2023/04/12 20:11:51;;;;;;;4.00;1.57;;;;;;;5.68;59.12;98883.44;20857108;28;20242;-77
2023/04/12 20:22:00;;;;;;;3.37;1.87;;;;;;;5.98;59.80;98882.13;20927823;28;20218;-86
2023/04/12 20:32:03;;;;;;;2.60;1.00;;;;;;;5.91;57.52;98879.09;20978582;28;20252;-82
2023/04/12 20:42:07;;;;;;;2.00;0.80;;;;;;;5.73;55.41;98883.22;20973054;28;20642;-78
2023/04/12 20:52:09;;;;;;;1.80;0.30;;;;;;;6.12;50.45;98850.16;20965625;28;20239;-84
2023/04/12 21:02:12;;;;;;;1.50;0.63;;;;;;;6.43;49.75;98856.03;20983047;28;20534;-81
2023/04/12 21:12:16;;;;;;;2.60;0.30;;;;;;;5.97;51.21;98866.47;20985250;28;20219;-80
2023/04/12 21:22:18;;;;;;;1.47;0.33;;;;;;;6.14;49.00;98876.69;20973106;28;20227;-78
2023/04/12 21:32:20;;;;;;;0.98;0.40;;;;;;;6.32;46.63;98878.06;20887522;28;20285;-78
2023/04/12 21:42:23;;;;;;;0.70;0.20;;;;;;;5.78;48.00;98860.63;20904602;28;20250;-84
2023/04/12 21:52:25;;;;;;;1.10;0.40;;;;;;;6.40;46.27;98862.34;20881559;28;20219;-78
2023/04/12 22:02:27;;;;;;;0.50;0.30;;;;;;;6.44;48.83;98868.88;20886748;28;20195;-86
2023/04/12 22:12:32;;;;;;;0.93;0.27;;;;;;;5.47;49.69;98880.69;20901151;28;20251;-83
2023/04/12 22:22:36;;;;;;;2.17;0.30;;;;;;;5.05;52.27;98879.84;20899901;28;20227;-85
2023/04/12 22:32:38;;;;;;;0.73;0.40;;;;;;;4.80;55.48;98833.34;20979527;28;20559;-85
2023/04/12 22:42:44;;;;;;;1.17;0.40;;;;;;;5.10;56.33;98832.13;20995670;28;20645;-82
2023/04/12 22:52:48;;;;;;;0.23;0.20;;;;;;;4.65;56.77;98808.78;20989907;28;20252;-76
2023/04/12 23:02:52;;;;;;;0.40;0.20;;;;;;;4.51;57.00;98789.47;20992614;28;20225;-76
2023/04/12 23:12:54;;;;;;;0.30;0.30;;;;;;;4.78;56.20;98780.56;20991062;28;20214;-77
2023/04/12 23:22:57;;;;;;;0.93;0.30;;;;;;;4.55;55.75;98768.09;20980046;28;20249;-84
2023/04/12 23:32:59;;;;;;;0.30;0.10;;;;;;;4.76;53.68;98748.53;20985389;28;20219;-83
2023/04/12 23:43:01;;;;;;;0.30;0.10;;;;;;;4.71;54.82;98734.75;20952881;28;20199;-81
2023/04/12 23:53:04;;;;;;;0.30;0.10;;;;;;;4.91;52.60;98725.50;20940877;28;20285;-81
